sensor_id;sensor_type;location;lat;lon;timestamp;P1;durP1;ratioP1;P2;durP2;ratioP2
24143;SDS011;12307;50.828;6.080;2023-12-07T00:01:54;2.30;;;1.77;;
24143;SDS011;12307;50.828;6.080;2023-12-07T00:04:19;2.35;;;1.90;;
24143;SDS011;12307;50.828;6.080;2023-12-07T00:06:45;2.45;;;1.88;;
24143;SDS011;12307;50.828;6.080;2023-12-07T00:09:11;2.45;;;2.00;;
24143;SDS011;12307;50.828;6.080;2023-12-07T00:11:37;2.08;;;1.80;;
24143;SDS011;12307;50.828;6.080;2023-12-07T00:14:04;2.08;;;1.80;;
24143;SDS011;12307;50.828;6.080;2023-12-07T00:16:30;2.72;;;1.70;;
24143;SDS011;12307;50.828;6.080;2023-12-07T00:18:56;2.70;;;1.92;;
24143;SDS011;12307;50.828;6.080;2023-12-07T00:21:22;2.97;;;1.80;;
24143;SDS011;12307;50.828;6.080;2023-12-07T00:23:48;1.85;;;1.60;;
24143;SDS011;12307;50.828;6.080;2023-12-07T00:26:13;2.47;;;1.85;;
24143;SDS011;12307;50.828;6.080;2023-12-07T00:28:39;2.35;;;1.90;;
24143;SDS011;12307;50.828;6.080;2023-12-07T00:31:06;2.00;;;1.80;;
24143;SDS011;12307;50.828;6.080;2023-12-07T00:33:33;2.30;;;2.00;;
24143;SDS011;12307;50.828;6.080;2023-12-07T00:35:59;2.33;;;1.92;;
24143;SDS011;12307;50.828;6.080;2023-12-07T00:38:24;1.88;;;1.70;;
24143;SDS011;12307;50.828;6.080;2023-12-07T00:40:50;2.10;;;1.85;;
24143;SDS011;12307;50.828;6.080;2023-12-07T00:43:16;2.38;;;2.00;;
24143;SDS011;12307;50.828;6.080;2023-12-07T00:45:42;2.72;;;2.00;;
24143;SDS011;12307;50.828;6.080;2023-12-07T00:48:09;2.38;;;1.90;;
24143;SDS011;12307;50.828;6.080;2023-12-07T00:50:35;2.20;;;2.00;;
24143;SDS011;12307;50.828;6.080;2023-12-07T00:53:00;2.85;;;2.10;;
24143;SDS011;12307;50.828;6.080;2023-12-07T00:55:26;2.90;;;2.00;;
24143;SDS011;12307;50.828;6.080;2023-12-07T00:57:52;2.28;;;1.88;;
24143;SDS011;12307;50.828;6.080;2023-12-07T01:00:17;2.63;;;2.00;;
24143;SDS011;12307;50.828;6.080;2023-12-07T01:02:43;3.40;;;2.00;;
24143;SDS011;12307;50.828;6.080;2023-12-07T01:05:11;2.72;;;2.10;;
24143;SDS011;12307;50.828;6.080;2023-12-07T01:07:36;2.17;;;1.90;;
24143;SDS011;12307;50.828;6.080;2023-12-07T01:10:02;3.08;;;2.20;;
24143;SDS011;12307;50.828;6.080;2023-12-07T01:12:29;3.60;;;2.40;;
24143;SDS011;12307;50.828;6.080;2023-12-07T01:14:55;2.38;;;2.10;;
24143;SDS011;12307;50.828;6.080;2023-12-07T01:17:20;2.88;;;1.80;;
24143;SDS011;12307;50.828;6.080;2023-12-07T01:19:46;2.20;;;2.00;;
24143;SDS011;12307;50.828;6.080;2023-12-07T01:22:13;2.97;;;2.10;;
24143;SDS011;12307;50.828;6.080;2023-12-07T01:24:39;2.03;;;1.60;;
24143;SDS011;12307;50.828;6.080;2023-12-07T01:27:05;2.78;;;2.00;;
24143;SDS011;12307;50.828;6.080;2023-12-07T01:29:30;2.58;;;2.00;;
24143;SDS011;12307;50.828;6.080;2023-12-07T01:31:56;2.33;;;1.90;;
24143;SDS011;12307;50.828;6.080;2023-12-07T01:34:22;2.33;;;1.88;;
24143;SDS011;12307;50.828;6.080;2023-12-07T01:36:47;2.38;;;1.90;;
24143;SDS011;12307;50.828;6.080;2023-12-07T01:39:14;2.90;;;2.00;;
24143;SDS011;12307;50.828;6.080;2023-12-07T01:41:40;2.47;;;2.28;;
24143;SDS011;12307;50.828;6.080;2023-12-07T01:44:06;3.13;;;1.90;;
24143;SDS011;12307;50.828;6.080;2023-12-07T01:46:32;2.55;;;1.80;;
24143;SDS011;12307;50.828;6.080;2023-12-07T01:48:59;2.15;;;1.73;;
24143;SDS011;12307;50.828;6.080;2023-12-07T01:51:25;2.25;;;1.98;;
24143;SDS011;12307;50.828;6.080;2023-12-07T01:53:51;2.10;;;1.90;;
24143;SDS011;12307;50.828;6.080;2023-12-07T01:56:19;2.22;;;1.75;;
24143;SDS011;12307;50.828;6.080;2023-12-07T01:58:45;2.88;;;2.03;;
24143;SDS011;12307;50.828;6.080;2023-12-07T02:01:11;3.13;;;2.22;;
24143;SDS011;12307;50.828;6.080;2023-12-07T02:03:38;2.75;;;2.20;;
24143;SDS011;12307;50.828;6.080;2023-12-07T02:06:06;3.05;;;2.13;;
24143;SDS011;12307;50.828;6.080;2023-12-07T02:08:33;3.20;;;1.90;;
24143;SDS011;12307;50.828;6.080;2023-12-07T02:10:59;2.20;;;1.90;;
24143;SDS011;12307;50.828;6.080;2023-12-07T02:13:27;2.95;;;1.98;;
24143;SDS011;12307;50.828;6.080;2023-12-07T02:15:53;2.60;;;1.95;;
24143;SDS011;12307;50.828;6.080;2023-12-07T02:18:22;2.88;;;2.08;;
24143;SDS011;12307;50.828;6.080;2023-12-07T02:20:58;2.10;;;1.90;;
24143;SDS011;12307;50.828;6.080;2023-12-07T02:23:31;1.85;;;1.67;;
24143;SDS011;12307;50.828;6.080;2023-12-07T02:29:14;2.55;;;1.77;;
24143;SDS011;12307;50.828;6.080;2023-12-07T02:31:40;2.17;;;1.77;;
24143;SDS011;12307;50.828;6.080;2023-12-07T02:34:06;2.25;;;1.85;;
24143;SDS011;12307;50.828;6.080;2023-12-07T02:36:32;2.92;;;2.10;;
24143;SDS011;12307;50.828;6.080;2023-12-07T02:39:01;2.92;;;1.92;;
24143;SDS011;12307;50.828;6.080;2023-12-07T02:41:28;1.85;;;1.65;;
24143;SDS011;12307;50.828;6.080;2023-12-07T02:43:56;2.45;;;1.90;;
24143;SDS011;12307;50.828;6.080;2023-12-07T02:46:24;3.03;;;2.10;;
24143;SDS011;12307;50.828;6.080;2023-12-07T02:48:50;1.90;;;1.70;;
24143;SDS011;12307;50.828;6.080;2023-12-07T02:51:16;2.78;;;1.77;;
24143;SDS011;12307;50.828;6.080;2023-12-07T02:53:42;2.05;;;1.75;;
24143;SDS011;12307;50.828;6.080;2023-12-07T02:56:08;2.22;;;2.03;;
24143;SDS011;12307;50.828;6.080;2023-12-07T02:58:34;2.45;;;1.98;;
24143;SDS011;12307;50.828;6.080;2023-12-07T03:00:59;2.10;;;1.90;;
24143;SDS011;12307;50.828;6.080;2023-12-07T03:03:26;2.53;;;1.90;;
24143;SDS011;12307;50.828;6.080;2023-12-07T03:05:52;2.83;;;2.10;;
24143;SDS011;12307;50.828;6.080;2023-12-07T03:08:18;2.60;;;1.95;;
24143;SDS011;12307;50.828;6.080;2023-12-07T03:10:43;2.40;;;1.88;;
24143;SDS011;12307;50.828;6.080;2023-12-07T03:13:09;2.17;;;1.98;;
24143;SDS011;12307;50.828;6.080;2023-12-07T03:15:35;2.05;;;1.80;;
24143;SDS011;12307;50.828;6.080;2023-12-07T03:18:00;1.98;;;1.60;;
24143;SDS011;12307;50.828;6.080;2023-12-07T03:20:28;2.53;;;1.90;;
24143;SDS011;12307;50.828;6.080;2023-12-07T03:22:53;1.83;;;1.70;;
24143;SDS011;12307;50.828;6.080;2023-12-07T03:25:19;1.90;;;1.67;;
24143;SDS011;12307;50.828;6.080;2023-12-07T03:27:45;2.10;;;1.75;;
24143;SDS011;12307;50.828;6.080;2023-12-07T03:30:11;2.22;;;2.03;;
24143;SDS011;12307;50.828;6.080;2023-12-07T03:32:37;2.95;;;1.67;;
24143;SDS011;12307;50.828;6.080;2023-12-07T03:35:03;1.98;;;1.73;;
24143;SDS011;12307;50.828;6.080;2023-12-07T03:37:30;2.25;;;1.88;;
24143;SDS011;12307;50.828;6.080;2023-12-07T03:39:56;2.25;;;1.80;;
24143;SDS011;12307;50.828;6.080;2023-12-07T03:42:22;4.20;;;1.90;;
24143;SDS011;12307;50.828;6.080;2023-12-07T03:44:48;2.38;;;1.80;;
24143;SDS011;12307;50.828;6.080;2023-12-07T03:47:14;2.00;;;1.80;;
24143;SDS011;12307;50.828;6.080;2023-12-07T03:49:39;2.20;;;1.73;;
24143;SDS011;12307;50.828;6.080;2023-12-07T03:52:06;2.25;;;1.80;;
24143;SDS011;12307;50.828;6.080;2023-12-07T03:54:33;2.00;;;1.80;;
24143;SDS011;12307;50.828;6.080;2023-12-07T03:56:59;2.20;;;1.80;;
24143;SDS011;12307;50.828;6.080;2023-12-07T03:59:25;2.00;;;1.60;;
24143;SDS011;12307;50.828;6.080;2023-12-07T04:01:51;2.00;;;1.80;;
24143;SDS011;12307;50.828;6.080;2023-12-07T04:04:17;2.70;;;2.00;;
24143;SDS011;12307;50.828;6.080;2023-12-07T04:06:42;3.58;;;1.92;;
24143;SDS011;12307;50.828;6.080;2023-12-07T04:09:08;2.33;;;1.98;;
24143;SDS011;12307;50.828;6.080;2023-12-07T04:11:35;2.20;;;2.00;;
24143;SDS011;12307;50.828;6.080;2023-12-07T04:14:01;2.85;;;2.08;;
24143;SDS011;12307;50.828;6.080;2023-12-07T04:16:26;2.40;;;1.90;;
24143;SDS011;12307;50.828;6.080;2023-12-07T04:18:52;2.33;;;1.70;;
24143;SDS011;12307;50.828;6.080;2023-12-07T04:21:18;2.10;;;1.90;;
24143;SDS011;12307;50.828;6.080;2023-12-07T04:23:44;1.67;;;1.58;;
24143;SDS011;12307;50.828;6.080;2023-12-07T04:26:10;1.90;;;1.70;;
24143;SDS011;12307;50.828;6.080;2023-12-07T04:28:37;2.88;;;1.80;;
24143;SDS011;12307;50.828;6.080;2023-12-07T04:31:03;2.42;;;1.85;;
24143;SDS011;12307;50.828;6.080;2023-12-07T04:33:29;2.13;;;1.60;;
24143;SDS011;12307;50.828;6.080;2023-12-07T04:35:54;2.15;;;1.73;;
24143;SDS011;12307;50.828;6.080;2023-12-07T04:38:20;2.28;;;1.77;;
24143;SDS011;12307;50.828;6.080;2023-12-07T04:40:46;2.13;;;1.85;;
24143;SDS011;12307;50.828;6.080;2023-12-07T04:43:12;1.83;;;1.63;;
24143;SDS011;12307;50.828;6.080;2023-12-07T04:45:39;1.90;;;1.60;;
24143;SDS011;12307;50.828;6.080;2023-12-07T04:48:05;2.65;;;1.80;;
24143;SDS011;12307;50.828;6.080;2023-12-07T04:50:30;2.05;;;1.80;;
24143;SDS011;12307;50.828;6.080;2023-12-07T04:52:56;2.20;;;1.70;;
24143;SDS011;12307;50.828;6.080;2023-12-07T04:55:22;2.70;;;1.90;;
24143;SDS011;12307;50.828;6.080;2023-12-07T04:57:48;2.97;;;1.75;;
24143;SDS011;12307;50.828;6.080;2023-12-07T05:00:13;2.13;;;1.73;;
24143;SDS011;12307;50.828;6.080;2023-12-07T05:02:41;2.30;;;1.65;;
24143;SDS011;12307;50.828;6.080;2023-12-07T05:05:07;1.85;;;1.70;;
24143;SDS011;12307;50.828;6.080;2023-12-07T05:07:34;1.80;;;1.70;;
24143;SDS011;12307;50.828;6.080;2023-12-07T05:09:59;1.60;;;1.50;;
24143;SDS011;12307;50.828;6.080;2023-12-07T05:12:25;2.05;;;1.83;;
24143;SDS011;12307;50.828;6.080;2023-12-07T05:14:51;2.47;;;1.80;;
24143;SDS011;12307;50.828;6.080;2023-12-07T05:17:16;1.90;;;1.60;;
24143;SDS011;12307;50.828;6.080;2023-12-07T05:19:44;1.95;;;1.50;;
24143;SDS011;12307;50.828;6.080;2023-12-07T05:22:10;1.52;;;1.40;;
24143;SDS011;12307;50.828;6.080;2023-12-07T05:24:36;2.40;;;2.00;;
24143;SDS011;12307;50.828;6.080;2023-12-07T05:27:02;1.50;;;1.40;;
24143;SDS011;12307;50.828;6.080;2023-12-07T05:29:28;1.70;;;1.60;;
24143;SDS011;12307;50.828;6.080;2023-12-07T05:31:54;1.60;;;1.50;;
24143;SDS011;12307;50.828;6.080;2023-12-07T05:34:20;1.58;;;1.48;;
24143;SDS011;12307;50.828;6.080;2023-12-07T05:36:47;1.55;;;1.35;;
24143;SDS011;12307;50.828;6.080;2023-12-07T05:39:13;1.60;;;1.38;;
24143;SDS011;12307;50.828;6.080;2023-12-07T05:41:39;2.17;;;1.50;;
24143;SDS011;12307;50.828;6.080;2023-12-07T05:44:04;1.90;;;1.50;;
24143;SDS011;12307;50.828;6.080;2023-12-07T05:46:31;1.58;;;1.48;;
24143;SDS011;12307;50.828;6.080;2023-12-07T05:48:57;1.92;;;1.75;;
24143;SDS011;12307;50.828;6.080;2023-12-07T05:51:23;1.73;;;1.50;;
24143;SDS011;12307;50.828;6.080;2023-12-07T05:53:50;1.70;;;1.58;;
24143;SDS011;12307;50.828;6.080;2023-12-07T05:56:18;1.90;;;1.70;;
24143;SDS011;12307;50.828;6.080;2023-12-07T05:58:45;1.50;;;1.40;;
24143;SDS011;12307;50.828;6.080;2023-12-07T06:01:11;1.60;;;1.50;;
24143;SDS011;12307;50.828;6.080;2023-12-07T06:03:36;1.77;;;1.50;;
24143;SDS011;12307;50.828;6.080;2023-12-07T06:06:02;1.50;;;1.40;;
24143;SDS011;12307;50.828;6.080;2023-12-07T06:08:29;1.73;;;1.63;;
24143;SDS011;12307;50.828;6.080;2023-12-07T06:10:56;2.17;;;1.73;;
24143;SDS011;12307;50.828;6.080;2023-12-07T06:13:21;1.63;;;1.42;;
24143;SDS011;12307;50.828;6.080;2023-12-07T06:15:47;2.33;;;1.70;;
24143;SDS011;12307;50.828;6.080;2023-12-07T06:18:13;1.77;;;1.67;;
24143;SDS011;12307;50.828;6.080;2023-12-07T06:20:38;1.50;;;1.40;;
24143;SDS011;12307;50.828;6.080;2023-12-07T06:23:06;1.90;;;1.35;;
24143;SDS011;12307;50.828;6.080;2023-12-07T06:25:32;1.70;;;1.60;;
24143;SDS011;12307;50.828;6.080;2023-12-07T06:27:59;2.40;;;1.55;;
24143;SDS011;12307;50.828;6.080;2023-12-07T06:30:25;3.83;;;1.63;;
24143;SDS011;12307;50.828;6.080;2023-12-07T06:32:51;1.85;;;1.58;;
24143;SDS011;12307;50.828;6.080;2023-12-07T06:35:16;1.50;;;1.40;;
24143;SDS011;12307;50.828;6.080;2023-12-07T06:37:42;1.65;;;1.50;;
24143;SDS011;12307;50.828;6.080;2023-12-07T06:40:08;1.70;;;1.23;;
24143;SDS011;12307;50.828;6.080;2023-12-07T06:42:35;1.95;;;1.58;;
24143;SDS011;12307;50.828;6.080;2023-12-07T06:45:02;2.40;;;1.48;;
24143;SDS011;12307;50.828;6.080;2023-12-07T06:47:28;1.80;;;1.55;;
24143;SDS011;12307;50.828;6.080;2023-12-07T06:49:54;1.55;;;1.45;;
24143;SDS011;12307;50.828;6.080;2023-12-07T06:52:23;1.40;;;1.30;;
24143;SDS011;12307;50.828;6.080;2023-12-07T06:54:49;1.50;;;1.38;;
24143;SDS011;12307;50.828;6.080;2023-12-07T06:57:15;1.55;;;1.35;;
24143;SDS011;12307;50.828;6.080;2023-12-07T06:59:40;2.17;;;1.45;;
24143;SDS011;12307;50.828;6.080;2023-12-07T07:02:07;1.63;;;1.50;;
24143;SDS011;12307;50.828;6.080;2023-12-07T07:04:33;2.30;;;1.70;;
24143;SDS011;12307;50.828;6.080;2023-12-07T07:06:59;1.42;;;1.33;;
24143;SDS011;12307;50.828;6.080;2023-12-07T07:09:24;1.70;;;1.38;;
24143;SDS011;12307;50.828;6.080;2023-12-07T07:11:50;1.65;;;1.50;;
24143;SDS011;12307;50.828;6.080;2023-12-07T07:14:16;1.60;;;1.33;;
24143;SDS011;12307;50.828;6.080;2023-12-07T07:16:42;2.40;;;1.50;;
24143;SDS011;12307;50.828;6.080;2023-12-07T07:19:10;2.10;;;1.75;;
24143;SDS011;12307;50.828;6.080;2023-12-07T07:21:36;1.60;;;1.50;;
24143;SDS011;12307;50.828;6.080;2023-12-07T07:24:01;1.50;;;1.35;;
24143;SDS011;12307;50.828;6.080;2023-12-07T07:26:27;2.08;;;1.50;;
24143;SDS011;12307;50.828;6.080;2023-12-07T07:28:53;1.42;;;1.33;;
24143;SDS011;12307;50.828;6.080;2023-12-07T07:31:19;1.55;;;1.40;;
24143;SDS011;12307;50.828;6.080;2023-12-07T07:33:44;1.50;;;1.40;;
24143;SDS011;12307;50.828;6.080;2023-12-07T07:36:13;1.50;;;1.40;;
24143;SDS011;12307;50.828;6.080;2023-12-07T07:38:42;1.65;;;1.48;;
24143;SDS011;12307;50.828;6.080;2023-12-07T07:41:09;1.40;;;1.27;;
24143;SDS011;12307;50.828;6.080;2023-12-07T07:43:34;1.63;;;1.10;;
24143;SDS011;12307;50.828;6.080;2023-12-07T07:46:00;2.65;;;1.38;;
24143;SDS011;12307;50.828;6.080;2023-12-07T07:48:26;1.73;;;1.50;;
24143;SDS011;12307;50.828;6.080;2023-12-07T07:50:52;1.75;;;1.30;;
24143;SDS011;12307;50.828;6.080;2023-12-07T07:53:19;1.45;;;1.35;;
24143;SDS011;12307;50.828;6.080;2023-12-07T07:55:45;1.98;;;1.55;;
24143;SDS011;12307;50.828;6.080;2023-12-07T07:58:10;1.50;;;1.40;;
24143;SDS011;12307;50.828;6.080;2023-12-07T08:00:36;1.27;;;1.17;;
24143;SDS011;12307;50.828;6.080;2023-12-07T08:03:02;2.15;;;1.20;;
24143;SDS011;12307;50.828;6.080;2023-12-07T08:05:28;2.22;;;1.52;;
24143;SDS011;12307;50.828;6.080;2023-12-07T08:07:53;1.30;;;1.15;;
24143;SDS011;12307;50.828;6.080;2023-12-07T08:10:20;1.55;;;1.30;;
24143;SDS011;12307;50.828;6.080;2023-12-07T08:12:46;1.48;;;1.38;;
24143;SDS011;12307;50.828;6.080;2023-12-07T08:15:12;1.52;;;1.33;;
24143;SDS011;12307;50.828;6.080;2023-12-07T08:17:38;1.70;;;1.20;;
24143;SDS011;12307;50.828;6.080;2023-12-07T08:20:07;1.90;;;1.40;;
24143;SDS011;12307;50.828;6.080;2023-12-07T08:22:34;1.52;;;1.20;;
24143;SDS011;12307;50.828;6.080;2023-12-07T08:24:59;2.00;;;1.55;;
24143;SDS011;12307;50.828;6.080;2023-12-07T08:27:26;2.15;;;1.52;;
24143;SDS011;12307;50.828;6.080;2023-12-07T08:29:52;2.45;;;1.23;;
24143;SDS011;12307;50.828;6.080;2023-12-07T08:32:18;1.20;;;1.10;;
24143;SDS011;12307;50.828;6.080;2023-12-07T08:34:44;1.30;;;1.20;;
24143;SDS011;12307;50.828;6.080;2023-12-07T08:37:10;1.40;;;1.27;;
24143;SDS011;12307;50.828;6.080;2023-12-07T08:39:35;1.48;;;1.20;;
24143;SDS011;12307;50.828;6.080;2023-12-07T08:42:01;1.70;;;1.27;;
24143;SDS011;12307;50.828;6.080;2023-12-07T08:44:28;2.05;;;1.30;;
24143;SDS011;12307;50.828;6.080;2023-12-07T08:46:54;1.60;;;1.38;;
24143;SDS011;12307;50.828;6.080;2023-12-07T08:49:20;1.40;;;1.20;;
24143;SDS011;12307;50.828;6.080;2023-12-07T08:51:46;1.85;;;1.20;;
24143;SDS011;12307;50.828;6.080;2023-12-07T08:54:12;1.30;;;1.20;;
24143;SDS011;12307;50.828;6.080;2023-12-07T08:56:37;1.60;;;1.30;;
24143;SDS011;12307;50.828;6.080;2023-12-07T08:59:03;1.67;;;1.30;;
24143;SDS011;12307;50.828;6.080;2023-12-07T09:01:30;1.48;;;1.10;;
24143;SDS011;12307;50.828;6.080;2023-12-07T09:03:58;1.25;;;1.15;;
24143;SDS011;12307;50.828;6.080;2023-12-07T09:06:24;1.52;;;1.33;;
24143;SDS011;12307;50.828;6.080;2023-12-07T09:08:50;1.33;;;1.20;;
24143;SDS011;12307;50.828;6.080;2023-12-07T09:11:15;1.15;;;1.05;;
24143;SDS011;12307;50.828;6.080;2023-12-07T09:13:41;1.88;;;1.10;;
24143;SDS011;12307;50.828;6.080;2023-12-07T09:16:07;1.30;;;1.20;;
24143;SDS011;12307;50.828;6.080;2023-12-07T09:18:35;1.60;;;1.40;;
24143;SDS011;12307;50.828;6.080;2023-12-07T09:21:01;1.40;;;1.20;;
24143;SDS011;12307;50.828;6.080;2023-12-07T09:23:27;1.73;;;1.13;;
24143;SDS011;12307;50.828;6.080;2023-12-07T09:25:52;1.25;;;1.10;;
24143;SDS011;12307;50.828;6.080;2023-12-07T09:28:18;1.50;;;1.30;;
24143;SDS011;12307;50.828;6.080;2023-12-07T09:30:44;1.38;;;1.27;;
24143;SDS011;12307;50.828;6.080;2023-12-07T09:33:10;1.50;;;1.20;;
24143;SDS011;12307;50.828;6.080;2023-12-07T09:35:38;2.83;;;1.40;;
24143;SDS011;12307;50.828;6.080;2023-12-07T09:38:04;1.65;;;1.17;;
24143;SDS011;12307;50.828;6.080;2023-12-07T09:40:29;1.50;;;1.30;;
24143;SDS011;12307;50.828;6.080;2023-12-07T09:42:55;4.00;;;1.45;;
24143;SDS011;12307;50.828;6.080;2023-12-07T09:45:21;1.60;;;1.23;;
24143;SDS011;12307;50.828;6.080;2023-12-07T09:47:47;2.35;;;1.50;;
24143;SDS011;12307;50.828;6.080;2023-12-07T09:50:15;2.40;;;1.40;;
24143;SDS011;12307;50.828;6.080;2023-12-07T09:52:44;2.33;;;1.60;;
24143;SDS011;12307;50.828;6.080;2023-12-07T09:55:10;1.92;;;1.50;;
24143;SDS011;12307;50.828;6.080;2023-12-07T09:57:36;3.10;;;1.60;;
24143;SDS011;12307;50.828;6.080;2023-12-07T10:00:03;2.03;;;1.38;;
24143;SDS011;12307;50.828;6.080;2023-12-07T10:02:29;2.15;;;1.60;;
24143;SDS011;12307;50.828;6.080;2023-12-07T10:05:05;2.08;;;1.60;;
24143;SDS011;12307;50.828;6.080;2023-12-07T10:07:34;2.60;;;1.48;;
24143;SDS011;12307;50.828;6.080;2023-12-07T10:10:04;2.92;;;1.70;;
24143;SDS011;12307;50.828;6.080;2023-12-07T10:12:30;1.30;;;1.20;;
24143;SDS011;12307;50.828;6.080;2023-12-07T10:14:56;1.88;;;1.45;;
24143;SDS011;12307;50.828;6.080;2023-12-07T10:17:23;1.83;;;1.30;;
24143;SDS011;12307;50.828;6.080;2023-12-07T10:20:02;1.98;;;1.30;;
24143;SDS011;12307;50.828;6.080;2023-12-07T10:22:33;1.50;;;1.30;;
24143;SDS011;12307;50.828;6.080;2023-12-07T10:24:59;1.77;;;1.10;;
24143;SDS011;12307;50.828;6.080;2023-12-07T10:27:26;1.20;;;1.10;;
24143;SDS011;12307;50.828;6.080;2023-12-07T10:29:53;1.60;;;1.30;;
24143;SDS011;12307;50.828;6.080;2023-12-07T10:32:19;1.65;;;1.40;;
24143;SDS011;12307;50.828;6.080;2023-12-07T10:34:46;1.40;;;1.20;;
24143;SDS011;12307;50.828;6.080;2023-12-07T10:37:12;2.88;;;1.30;;
24143;SDS011;12307;50.828;6.080;2023-12-07T10:39:37;1.88;;;1.50;;
24143;SDS011;12307;50.828;6.080;2023-12-07T10:42:03;1.70;;;1.30;;
24143;SDS011;12307;50.828;6.080;2023-12-07T10:44:36;1.75;;;1.40;;
24143;SDS011;12307;50.828;6.080;2023-12-07T10:47:06;2.45;;;1.30;;
24143;SDS011;12307;50.828;6.080;2023-12-07T10:49:35;2.60;;;1.35;;
24143;SDS011;12307;50.828;6.080;2023-12-07T10:52:06;1.50;;;1.40;;
24143;SDS011;12307;50.828;6.080;2023-12-07T10:54:34;1.58;;;1.20;;
24143;SDS011;12307;50.828;6.080;2023-12-07T10:57:04;1.40;;;1.15;;
24143;SDS011;12307;50.828;6.080;2023-12-07T10:59:32;1.13;;;1.02;;
24143;SDS011;12307;50.828;6.080;2023-12-07T11:02:01;1.38;;;1.10;;
24143;SDS011;12307;50.828;6.080;2023-12-07T11:04:28;1.27;;;1.17;;
24143;SDS011;12307;50.828;6.080;2023-12-07T11:06:55;1.23;;;1.08;;
24143;SDS011;12307;50.828;6.080;2023-12-07T11:09:28;1.63;;;1.20;;
24143;SDS011;12307;50.828;6.080;2023-12-07T11:12:01;1.38;;;0.90;;
24143;SDS011;12307;50.828;6.080;2023-12-07T11:14:30;1.33;;;1.00;;
24143;SDS011;12307;50.828;6.080;2023-12-07T11:16:57;1.67;;;1.20;;
24143;SDS011;12307;50.828;6.080;2023-12-07T11:22:14;1.67;;;1.10;;
24143;SDS011;12307;50.828;6.080;2023-12-07T11:24:53;1.20;;;0.80;;
24143;SDS011;12307;50.828;6.080;2023-12-07T11:27:22;1.10;;;0.90;;
24143;SDS011;12307;50.828;6.080;2023-12-07T11:29:49;1.30;;;1.08;;
24143;SDS011;12307;50.828;6.080;2023-12-07T11:32:14;0.80;;;0.80;;
24143;SDS011;12307;50.828;6.080;2023-12-07T11:34:41;0.85;;;0.70;;
24143;SDS011;12307;50.828;6.080;2023-12-07T11:37:10;1.15;;;1.00;;
24143;SDS011;12307;50.828;6.080;2023-12-07T11:39:39;1.05;;;0.90;;
24143;SDS011;12307;50.828;6.080;2023-12-07T11:42:07;0.77;;;0.77;;
24143;SDS011;12307;50.828;6.080;2023-12-07T11:44:36;1.10;;;1.00;;
24143;SDS011;12307;50.828;6.080;2023-12-07T11:47:03;0.90;;;0.80;;
24143;SDS011;12307;50.828;6.080;2023-12-07T11:49:29;0.77;;;0.77;;
24143;SDS011;12307;50.828;6.080;2023-12-07T11:51:57;1.35;;;1.00;;
24143;SDS011;12307;50.828;6.080;2023-12-07T11:54:25;1.15;;;0.88;;
24143;SDS011;12307;50.828;6.080;2023-12-07T11:56:52;1.17;;;0.95;;
24143;SDS011;12307;50.828;6.080;2023-12-07T11:59:18;0.90;;;0.80;;
24143;SDS011;12307;50.828;6.080;2023-12-07T12:01:46;1.00;;;0.90;;
24143;SDS011;12307;50.828;6.080;2023-12-07T12:04:12;0.88;;;0.88;;
24143;SDS011;12307;50.828;6.080;2023-12-07T12:06:38;0.80;;;0.80;;
24143;SDS011;12307;50.828;6.080;2023-12-07T12:09:03;0.85;;;0.75;;
24143;SDS011;12307;50.828;6.080;2023-12-07T12:11:30;1.10;;;0.80;;
24143;SDS011;12307;50.828;6.080;2023-12-07T12:13:56;0.80;;;0.80;;
24143;SDS011;12307;50.828;6.080;2023-12-07T12:16:22;0.73;;;0.70;;
24143;SDS011;12307;50.828;6.080;2023-12-07T12:18:48;0.80;;;0.80;;
24143;SDS011;12307;50.828;6.080;2023-12-07T12:21:14;1.00;;;0.90;;
24143;SDS011;12307;50.828;6.080;2023-12-07T12:23:39;0.93;;;0.80;;
24143;SDS011;12307;50.828;6.080;2023-12-07T12:26:06;0.80;;;0.80;;
24143;SDS011;12307;50.828;6.080;2023-12-07T12:28:34;1.00;;;0.90;;
24143;SDS011;12307;50.828;6.080;2023-12-07T12:31:07;0.90;;;0.90;;
24143;SDS011;12307;50.828;6.080;2023-12-07T12:33:36;1.10;;;1.00;;
24143;SDS011;12307;50.828;6.080;2023-12-07T12:36:05;1.02;;;0.90;;
24143;SDS011;12307;50.828;6.080;2023-12-07T12:38:32;1.00;;;0.90;;
24143;SDS011;12307;50.828;6.080;2023-12-07T12:40:58;1.75;;;1.10;;
24143;SDS011;12307;50.828;6.080;2023-12-07T12:43:24;1.20;;;1.05;;
24143;SDS011;12307;50.828;6.080;2023-12-07T12:45:51;1.33;;;1.20;;
24143;SDS011;12307;50.828;6.080;2023-12-07T12:48:18;1.25;;;1.15;;
24143;SDS011;12307;50.828;6.080;2023-12-07T12:50:44;1.25;;;1.10;;
24143;SDS011;12307;50.828;6.080;2023-12-07T12:53:10;1.20;;;1.08;;
24143;SDS011;12307;50.828;6.080;2023-12-07T12:55:39;1.27;;;1.05;;
24143;SDS011;12307;50.828;6.080;2023-12-07T12:58:06;1.20;;;1.10;;
24143;SDS011;12307;50.828;6.080;2023-12-07T13:00:33;1.20;;;1.10;;
24143;SDS011;12307;50.828;6.080;2023-12-07T13:03:02;2.08;;;1.25;;
24143;SDS011;12307;50.828;6.080;2023-12-07T13:05:29;1.30;;;1.08;;
24143;SDS011;12307;50.828;6.080;2023-12-07T13:07:55;3.13;;;1.10;;
24143;SDS011;12307;50.828;6.080;2023-12-07T13:10:21;1.90;;;1.25;;
24143;SDS011;12307;50.828;6.080;2023-12-07T13:12:47;1.85;;;1.40;;
24143;SDS011;12307;50.828;6.080;2023-12-07T13:15:13;1.40;;;1.23;;
24143;SDS011;12307;50.828;6.080;2023-12-07T13:17:39;1.40;;;1.30;;
24143;SDS011;12307;50.828;6.080;2023-12-07T13:20:07;1.75;;;1.30;;
24143;SDS011;12307;50.828;6.080;2023-12-07T13:22:35;1.83;;;1.23;;
24143;SDS011;12307;50.828;6.080;2023-12-07T13:25:01;1.75;;;1.00;;
24143;SDS011;12307;50.828;6.080;2023-12-07T13:27:27;2.15;;;1.30;;
24143;SDS011;12307;50.828;6.080;2023-12-07T13:29:53;2.83;;;1.40;;
24143;SDS011;12307;50.828;6.080;2023-12-07T13:32:19;2.20;;;1.40;;
24143;SDS011;12307;50.828;6.080;2023-12-07T13:34:44;1.73;;;1.20;;
24143;SDS011;12307;50.828;6.080;2023-12-07T13:37:11;3.22;;;1.45;;
24143;SDS011;12307;50.828;6.080;2023-12-07T13:39:37;2.40;;;1.30;;
24143;SDS011;12307;50.828;6.080;2023-12-07T13:42:03;2.15;;;1.30;;
24143;SDS011;12307;50.828;6.080;2023-12-07T13:44:29;2.05;;;1.33;;
24143;SDS011;12307;50.828;6.080;2023-12-07T13:46:57;1.80;;;1.20;;
24143;SDS011;12307;50.828;6.080;2023-12-07T13:49:23;2.15;;;1.30;;
24143;SDS011;12307;50.828;6.080;2023-12-07T13:51:49;1.45;;;1.30;;
24143;SDS011;12307;50.828;6.080;2023-12-07T13:54:16;1.67;;;1.50;;
24143;SDS011;12307;50.828;6.080;2023-12-07T13:56:42;2.85;;;1.45;;
24143;SDS011;12307;50.828;6.080;2023-12-07T13:59:08;1.67;;;1.52;;
24143;SDS011;12307;50.828;6.080;2023-12-07T14:01:35;1.95;;;1.40;;
24143;SDS011;12307;50.828;6.080;2023-12-07T14:04:01;2.53;;;1.40;;
24143;SDS011;12307;50.828;6.080;2023-12-07T14:06:28;3.05;;;1.40;;
24143;SDS011;12307;50.828;6.080;2023-12-07T14:08:53;1.70;;;1.30;;
24143;SDS011;12307;50.828;6.080;2023-12-07T14:11:20;2.10;;;1.35;;
24143;SDS011;12307;50.828;6.080;2023-12-07T14:13:46;3.03;;;1.40;;
24143;SDS011;12307;50.828;6.080;2023-12-07T14:16:13;3.15;;;1.52;;
24143;SDS011;12307;50.828;6.080;2023-12-07T14:18:39;3.42;;;1.30;;
24143;SDS011;12307;50.828;6.080;2023-12-07T14:21:05;1.90;;;1.30;;
24143;SDS011;12307;50.828;6.080;2023-12-07T14:23:30;1.60;;;1.10;;
24143;SDS011;12307;50.828;6.080;2023-12-07T14:25:56;3.63;;;1.40;;
24143;SDS011;12307;50.828;6.080;2023-12-07T14:28:27;2.60;;;1.38;;
24143;SDS011;12307;50.828;6.080;2023-12-07T14:30:55;1.50;;;1.40;;
24143;SDS011;12307;50.828;6.080;2023-12-07T14:33:21;1.45;;;1.20;;
24143;SDS011;12307;50.828;6.080;2023-12-07T14:35:47;2.33;;;1.75;;
24143;SDS011;12307;50.828;6.080;2023-12-07T14:38:13;1.85;;;1.50;;
24143;SDS011;12307;50.828;6.080;2023-12-07T14:40:39;1.90;;;1.30;;
24143;SDS011;12307;50.828;6.080;2023-12-07T14:43:05;2.17;;;1.40;;
24143;SDS011;12307;50.828;6.080;2023-12-07T14:45:32;1.77;;;1.30;;
24143;SDS011;12307;50.828;6.080;2023-12-07T14:47:58;2.75;;;1.45;;
24143;SDS011;12307;50.828;6.080;2023-12-07T14:50:23;2.78;;;1.67;;